Afton, Wisconsin
Current Conditions -  °F | °C
As of 7:45 AM on Friday 19 Dec 2014 (Local Time) from KJVL Reporting Station
Overcast Overcast  
Wind Chill: 27°   Ceiling: 1100
Heat Index: 27°   Visibility: 10mi
Dew Point: 21°   Wind: 0mph
Humidity: 80%   Direction: NA
Pressure: 30.29"   Gusts: NA
Location:  42.6°N, 89.07°W
Report Text: KJVL 191345Z 00000KT 10SM OVC011 M03/M06 A3029
Loading
Personal Weather Stations






























Interactive Weather Map New forecast layout! Learn more

10-Day Weather Forecast

Advertisements
Track Severe Weather on mobile